sensor_id;sensor_type;location;lat;lon;timestamp;temperature;humidity
71754;DHT22;59593;51.716;7.016;2023-06-05T00:01:37;15.20;99.90
71754;DHT22;59593;51.716;7.016;2023-06-05T00:04:06;15.10;99.90
71754;DHT22;59593;51.716;7.016;2023-06-05T00:06:32;14.90;99.90
71754;DHT22;59593;51.716;7.016;2023-06-05T00:08:57;14.90;99.90
71754;DHT22;59593;51.716;7.016;2023-06-05T00:11:23;14.80;99.90
71754;DHT22;59593;51.716;7.016;2023-06-05T00:13:49;14.80;99.90
71754;DHT22;59593;51.716;7.016;2023-06-05T00:16:16;14.70;99.90
71754;DHT22;59593;51.716;7.016;2023-06-05T00:18:42;14.60;99.90
71754;DHT22;59593;51.716;7.016;2023-06-05T00:21:12;14.60;99.90
71754;DHT22;59593;51.716;7.016;2023-06-05T00:23:38;14.70;99.90
71754;DHT22;59593;51.716;7.016;2023-06-05T00:26:07;14.70;99.90
71754;DHT22;59593;51.716;7.016;2023-06-05T00:28:32;14.60;99.90
71754;DHT22;59593;51.716;7.016;2023-06-05T00:30:59;14.50;99.90
71754;DHT22;59593;51.716;7.016;2023-06-05T00:33:26;14.50;99.90
71754;DHT22;59593;51.716;7.016;2023-06-05T00:35:54;14.40;99.90
71754;DHT22;59593;51.716;7.016;2023-06-05T00:38:19;14.40;99.90
71754;DHT22;59593;51.716;7.016;2023-06-05T00:40:48;14.40;99.90
71754;DHT22;59593;51.716;7.016;2023-06-05T00:43:13;14.30;99.90
71754;DHT22;59593;51.716;7.016;2023-06-05T00:45:39;14.30;99.90
71754;DHT22;59593;51.716;7.016;2023-06-05T00:48:05;14.30;99.90
71754;DHT22;59593;51.716;7.016;2023-06-05T00:50:32;14.20;99.90
71754;DHT22;59593;51.716;7.016;2023-06-05T00:53:00;14.20;99.90
71754;DHT22;59593;51.716;7.016;2023-06-05T00:55:26;14.20;99.90
71754;DHT22;59593;51.716;7.016;2023-06-05T00:57:53;14.10;99.90
71754;DHT22;59593;51.716;7.016;2023-06-05T01:00:19;14.10;99.90
71754;DHT22;59593;51.716;7.016;2023-06-05T01:02:46;14.00;99.90
71754;DHT22;59593;51.716;7.016;2023-06-05T01:05:12;13.90;99.90
71754;DHT22;59593;51.716;7.016;2023-06-05T01:07:38;13.90;99.90
71754;DHT22;59593;51.716;7.016;2023-06-05T01:10:07;13.90;99.90
71754;DHT22;59593;51.716;7.016;2023-06-05T01:15:08;13.90;99.90
71754;DHT22;59593;51.716;7.016;2023-06-05T01:17:34;13.90;99.90
71754;DHT22;59593;51.716;7.016;2023-06-05T01:20:04;13.90;99.90
71754;DHT22;59593;51.716;7.016;2023-06-05T01:22:33;13.90;99.90
71754;DHT22;59593;51.716;7.016;2023-06-05T01:25:00;13.70;99.90
71754;DHT22;59593;51.716;7.016;2023-06-05T01:27:46;13.80;99.90
71754;DHT22;59593;51.716;7.016;2023-06-05T01:30:23;13.80;99.90
71754;DHT22;59593;51.716;7.016;2023-06-05T01:32:57;13.70;99.90
71754;DHT22;59593;51.716;7.016;2023-06-05T01:35:30;13.70;99.90
71754;DHT22;59593;51.716;7.016;2023-06-05T01:38:00;13.60;99.90
71754;DHT22;59593;51.716;7.016;2023-06-05T01:40:29;13.40;99.90
71754;DHT22;59593;51.716;7.016;2023-06-05T01:42:56;13.40;99.90
71754;DHT22;59593;51.716;7.016;2023-06-05T01:45:23;13.40;99.90
71754;DHT22;59593;51.716;7.016;2023-06-05T01:47:49;13.40;99.90
71754;DHT22;59593;51.716;7.016;2023-06-05T01:50:16;13.40;99.90
71754;DHT22;59593;51.716;7.016;2023-06-05T01:52:42;13.30;99.90
71754;DHT22;59593;51.716;7.016;2023-06-05T01:55:15;13.20;99.90
71754;DHT22;59593;51.716;7.016;2023-06-05T01:57:42;13.20;99.90
71754;DHT22;59593;51.716;7.016;2023-06-05T02:00:09;13.10;99.90
71754;DHT22;59593;51.716;7.016;2023-06-05T02:02:45;13.10;99.90
71754;DHT22;59593;51.716;7.016;2023-06-05T02:05:13;13.20;99.90
71754;DHT22;59593;51.716;7.016;2023-06-05T02:07:41;13.10;99.90
71754;DHT22;59593;51.716;7.016;2023-06-05T02:10:07;12.90;99.90
71754;DHT22;59593;51.716;7.016;2023-06-05T02:12:34;12.90;99.90
71754;DHT22;59593;51.716;7.016;2023-06-05T02:15:00;13.00;99.90
71754;DHT22;59593;51.716;7.016;2023-06-05T02:17:26;12.80;99.90
71754;DHT22;59593;51.716;7.016;2023-06-05T02:19:52;12.80;99.90
71754;DHT22;59593;51.716;7.016;2023-06-05T02:22:18;12.90;99.90
71754;DHT22;59593;51.716;7.016;2023-06-05T02:24:44;12.70;99.90
71754;DHT22;59593;51.716;7.016;2023-06-05T02:27:10;12.60;99.90
71754;DHT22;59593;51.716;7.016;2023-06-05T02:29:39;12.60;99.90
71754;DHT22;59593;51.716;7.016;2023-06-05T02:32:05;12.60;99.90
71754;DHT22;59593;51.716;7.016;2023-06-05T02:34:32;12.50;99.90
71754;DHT22;59593;51.716;7.016;2023-06-05T02:36:58;12.40;99.90
71754;DHT22;59593;51.716;7.016;2023-06-05T02:39:24;12.20;99.90
71754;DHT22;59593;51.716;7.016;2023-06-05T02:41:51;12.30;99.90
71754;DHT22;59593;51.716;7.016;2023-06-05T02:44:16;12.30;99.90
71754;DHT22;59593;51.716;7.016;2023-06-05T02:46:42;12.20;99.90
71754;DHT22;59593;51.716;7.016;2023-06-05T02:49:08;12.30;99.90
71754;DHT22;59593;51.716;7.016;2023-06-05T02:51:33;12.20;99.90
71754;DHT22;59593;51.716;7.016;2023-06-05T02:54:00;12.20;99.90
71754;DHT22;59593;51.716;7.016;2023-06-05T02:56:27;12.10;99.90
71754;DHT22;59593;51.716;7.016;2023-06-05T02:58:53;12.20;99.90
71754;DHT22;59593;51.716;7.016;2023-06-05T03:01:19;12.20;99.90
71754;DHT22;59593;51.716;7.016;2023-06-05T03:03:46;12.10;99.90
71754;DHT22;59593;51.716;7.016;2023-06-05T03:06:14;12.00;99.90
71754;DHT22;59593;51.716;7.016;2023-06-05T03:08:42;12.10;99.90
71754;DHT22;59593;51.716;7.016;2023-06-05T03:11:11;12.10;99.90
71754;DHT22;59593;51.716;7.016;2023-06-05T03:13:37;12.10;99.90
71754;DHT22;59593;51.716;7.016;2023-06-05T03:16:02;12.00;99.90
71754;DHT22;59593;51.716;7.016;2023-06-05T03:18:29;11.80;99.90
71754;DHT22;59593;51.716;7.016;2023-06-05T03:20:55;11.70;99.90
71754;DHT22;59593;51.716;7.016;2023-06-05T03:23:25;11.70;99.90
71754;DHT22;59593;51.716;7.016;2023-06-05T03:25:53;11.60;99.90
71754;DHT22;59593;51.716;7.016;2023-06-05T03:28:19;11.60;99.90
71754;DHT22;59593;51.716;7.016;2023-06-05T03:30:45;11.40;99.90
71754;DHT22;59593;51.716;7.016;2023-06-05T03:33:11;11.40;99.90
71754;DHT22;59593;51.716;7.016;2023-06-05T03:35:39;11.30;99.90
71754;DHT22;59593;51.716;7.016;2023-06-05T03:38:05;11.40;99.90
71754;DHT22;59593;51.716;7.016;2023-06-05T03:40:31;11.40;99.90
71754;DHT22;59593;51.716;7.016;2023-06-05T03:42:57;11.40;99.90
71754;DHT22;59593;51.716;7.016;2023-06-05T03:45:23;11.30;99.90
71754;DHT22;59593;51.716;7.016;2023-06-05T03:47:48;11.30;99.90
71754;DHT22;59593;51.716;7.016;2023-06-05T03:50:14;11.30;99.90
71754;DHT22;59593;51.716;7.016;2023-06-05T03:52:41;11.40;99.90
71754;DHT22;59593;51.716;7.016;2023-06-05T03:55:08;11.40;99.90
71754;DHT22;59593;51.716;7.016;2023-06-05T03:57:35;11.30;99.90
71754;DHT22;59593;51.716;7.016;2023-06-05T04:00:06;11.20;99.90
71754;DHT22;59593;51.716;7.016;2023-06-05T04:02:35;11.10;99.90
71754;DHT22;59593;51.716;7.016;2023-06-05T04:05:02;11.10;99.90
71754;DHT22;59593;51.716;7.016;2023-06-05T04:07:29;11.10;99.90
71754;DHT22;59593;51.716;7.016;2023-06-05T04:09:55;11.20;99.90
71754;DHT22;59593;51.716;7.016;2023-06-05T04:12:21;11.10;99.90
71754;DHT22;59593;51.716;7.016;2023-06-05T04:14:47;11.20;99.90
71754;DHT22;59593;51.716;7.016;2023-06-05T04:17:12;11.30;99.90
71754;DHT22;59593;51.716;7.016;2023-06-05T04:19:40;11.30;99.90
71754;DHT22;59593;51.716;7.016;2023-06-05T04:22:06;11.30;99.90
71754;DHT22;59593;51.716;7.016;2023-06-05T04:24:31;11.30;99.90
71754;DHT22;59593;51.716;7.016;2023-06-05T04:26:57;11.40;99.90
71754;DHT22;59593;51.716;7.016;2023-06-05T04:29:26;11.40;99.90
71754;DHT22;59593;51.716;7.016;2023-06-05T04:31:52;11.40;99.90
71754;DHT22;59593;51.716;7.016;2023-06-05T04:34:18;11.50;99.90
71754;DHT22;59593;51.716;7.016;2023-06-05T04:36:44;11.60;99.90
71754;DHT22;59593;51.716;7.016;2023-06-05T04:39:10;11.70;99.90
71754;DHT22;59593;51.716;7.016;2023-06-05T04:41:43;11.80;99.90
71754;DHT22;59593;51.716;7.016;2023-06-05T04:44:13;11.90;99.90
71754;DHT22;59593;51.716;7.016;2023-06-05T04:46:43;11.90;99.90
71754;DHT22;59593;51.716;7.016;2023-06-05T04:49:13;11.80;99.90
71754;DHT22;59593;51.716;7.016;2023-06-05T04:51:39;11.80;99.90
71754;DHT22;59593;51.716;7.016;2023-06-05T04:54:05;11.80;99.90
71754;DHT22;59593;51.716;7.016;2023-06-05T04:56:32;11.80;99.90
71754;DHT22;59593;51.716;7.016;2023-06-05T04:58:58;11.80;99.90
71754;DHT22;59593;51.716;7.016;2023-06-05T05:01:25;12.00;99.90
71754;DHT22;59593;51.716;7.016;2023-06-05T05:03:50;12.00;99.90
71754;DHT22;59593;51.716;7.016;2023-06-05T05:06:16;12.00;99.90
71754;DHT22;59593;51.716;7.016;2023-06-05T05:08:43;12.20;99.90
71754;DHT22;59593;51.716;7.016;2023-06-05T05:11:12;12.30;99.90
71754;DHT22;59593;51.716;7.016;2023-06-05T05:13:38;12.30;99.90
71754;DHT22;59593;51.716;7.016;2023-06-05T05:16:04;12.40;99.90
71754;DHT22;59593;51.716;7.016;2023-06-05T05:18:30;12.60;99.90
71754;DHT22;59593;51.716;7.016;2023-06-05T05:20:55;12.70;99.90
71754;DHT22;59593;51.716;7.016;2023-06-05T05:23:21;12.80;99.90
71754;DHT22;59593;51.716;7.016;2023-06-05T05:25:47;12.80;99.90
71754;DHT22;59593;51.716;7.016;2023-06-05T05:28:13;12.70;99.90
71754;DHT22;59593;51.716;7.016;2023-06-05T05:30:39;12.80;99.90
71754;DHT22;59593;51.716;7.016;2023-06-05T05:33:07;12.90;99.90
71754;DHT22;59593;51.716;7.016;2023-06-05T05:35:33;12.80;99.90
71754;DHT22;59593;51.716;7.016;2023-06-05T05:37:58;12.70;99.90
71754;DHT22;59593;51.716;7.016;2023-06-05T05:40:24;12.70;99.90
71754;DHT22;59593;51.716;7.016;2023-06-05T05:42:50;12.90;99.90
71754;DHT22;59593;51.716;7.016;2023-06-05T05:45:15;12.90;99.90
71754;DHT22;59593;51.716;7.016;2023-06-05T05:47:41;13.10;99.90
71754;DHT22;59593;51.716;7.016;2023-06-05T05:50:07;13.20;99.90
71754;DHT22;59593;51.716;7.016;2023-06-05T05:52:33;13.30;99.90
71754;DHT22;59593;51.716;7.016;2023-06-05T05:54:58;13.40;99.90
71754;DHT22;59593;51.716;7.016;2023-06-05T05:57:25;13.60;99.90
71754;DHT22;59593;51.716;7.016;2023-06-05T05:59:51;13.50;99.90
71754;DHT22;59593;51.716;7.016;2023-06-05T06:02:16;13.60;99.90
71754;DHT22;59593;51.716;7.016;2023-06-05T06:04:42;13.70;99.90
71754;DHT22;59593;51.716;7.016;2023-06-05T06:07:15;13.90;99.90
71754;DHT22;59593;51.716;7.016;2023-06-05T06:09:40;14.00;99.90
71754;DHT22;59593;51.716;7.016;2023-06-05T06:12:06;14.20;99.90
71754;DHT22;59593;51.716;7.016;2023-06-05T06:14:35;14.10;99.90
71754;DHT22;59593;51.716;7.016;2023-06-05T06:17:01;14.10;99.90
71754;DHT22;59593;51.716;7.016;2023-06-05T06:19:28;14.00;99.90
71754;DHT22;59593;51.716;7.016;2023-06-05T06:21:54;14.10;99.90
71754;DHT22;59593;51.716;7.016;2023-06-05T06:24:20;14.20;99.90
71754;DHT22;59593;51.716;7.016;2023-06-05T06:26:47;14.40;99.90
71754;DHT22;59593;51.716;7.016;2023-06-05T06:29:17;14.40;99.90
71754;DHT22;59593;51.716;7.016;2023-06-05T06:31:43;14.60;99.90
71754;DHT22;59593;51.716;7.016;2023-06-05T06:34:08;14.70;99.90
71754;DHT22;59593;51.716;7.016;2023-06-05T06:36:38;14.80;99.90
71754;DHT22;59593;51.716;7.016;2023-06-05T06:39:09;15.00;99.90
71754;DHT22;59593;51.716;7.016;2023-06-05T06:41:36;15.00;99.90
71754;DHT22;59593;51.716;7.016;2023-06-05T06:44:02;14.70;99.90
71754;DHT22;59593;51.716;7.016;2023-06-05T06:46:28;14.70;99.90
71754;DHT22;59593;51.716;7.016;2023-06-05T06:48:54;15.00;99.90
71754;DHT22;59593;51.716;7.016;2023-06-05T06:51:19;15.00;99.90
71754;DHT22;59593;51.716;7.016;2023-06-05T06:53:47;15.30;99.90
71754;DHT22;59593;51.716;7.016;2023-06-05T06:56:13;15.10;99.90
71754;DHT22;59593;51.716;7.016;2023-06-05T06:58:41;15.20;99.90
71754;DHT22;59593;51.716;7.016;2023-06-05T07:01:07;15.30;99.90
71754;DHT22;59593;51.716;7.016;2023-06-05T07:03:35;15.20;99.90
71754;DHT22;59593;51.716;7.016;2023-06-05T07:06:01;15.30;99.90
71754;DHT22;59593;51.716;7.016;2023-06-05T07:08:26;15.50;99.90
71754;DHT22;59593;51.716;7.016;2023-06-05T07:10:53;15.80;99.90
71754;DHT22;59593;51.716;7.016;2023-06-05T07:13:21;15.50;99.90
71754;DHT22;59593;51.716;7.016;2023-06-05T07:15:47;15.90;99.90
71754;DHT22;59593;51.716;7.016;2023-06-05T07:18:13;16.10;99.90
71754;DHT22;59593;51.716;7.016;2023-06-05T07:20:39;16.10;99.90
71754;DHT22;59593;51.716;7.016;2023-06-05T07:23:05;16.30;99.90
71754;DHT22;59593;51.716;7.016;2023-06-05T07:25:31;16.40;99.90
71754;DHT22;59593;51.716;7.016;2023-06-05T07:27:57;16.40;99.90
71754;DHT22;59593;51.716;7.016;2023-06-05T07:30:25;16.40;99.90
71754;DHT22;59593;51.716;7.016;2023-06-05T07:32:51;16.60;99.90
71754;DHT22;59593;51.716;7.016;2023-06-05T07:35:16;16.90;99.90
71754;DHT22;59593;51.716;7.016;2023-06-05T07:37:42;16.60;99.90
71754;DHT22;59593;51.716;7.016;2023-06-05T07:40:08;16.50;99.90
71754;DHT22;59593;51.716;7.016;2023-06-05T07:42:34;16.50;99.90
71754;DHT22;59593;51.716;7.016;2023-06-05T07:45:00;16.80;99.90
71754;DHT22;59593;51.716;7.016;2023-06-05T07:47:26;16.50;99.90
71754;DHT22;59593;51.716;7.016;2023-06-05T07:50:02;16.70;99.90
71754;DHT22;59593;51.716;7.016;2023-06-05T07:52:32;16.60;99.90
71754;DHT22;59593;51.716;7.016;2023-06-05T07:54:58;16.70;99.90
71754;DHT22;59593;51.716;7.016;2023-06-05T07:57:24;16.60;99.90
71754;DHT22;59593;51.716;7.016;2023-06-05T07:59:50;16.80;99.90
71754;DHT22;59593;51.716;7.016;2023-06-05T08:02:17;16.80;99.90
71754;DHT22;59593;51.716;7.016;2023-06-05T08:04:43;17.00;99.90
71754;DHT22;59593;51.716;7.016;2023-06-05T08:07:08;17.10;99.90
71754;DHT22;59593;51.716;7.016;2023-06-05T08:09:34;17.10;99.90
71754;DHT22;59593;51.716;7.016;2023-06-05T08:12:04;17.10;99.90
71754;DHT22;59593;51.716;7.016;2023-06-05T08:14:31;17.10;99.90
71754;DHT22;59593;51.716;7.016;2023-06-05T08:16:57;17.20;99.90
71754;DHT22;59593;51.716;7.016;2023-06-05T08:19:23;17.00;99.90
71754;DHT22;59593;51.716;7.016;2023-06-05T08:21:53;17.40;99.90
71754;DHT22;59593;51.716;7.016;2023-06-05T08:24:22;17.60;99.90
71754;DHT22;59593;51.716;7.016;2023-06-05T08:26:48;17.90;99.90
71754;DHT22;59593;51.716;7.016;2023-06-05T08:29:14;17.60;99.90
71754;DHT22;59593;51.716;7.016;2023-06-05T08:31:39;17.90;99.90
71754;DHT22;59593;51.716;7.016;2023-06-05T08:34:05;18.10;99.90
71754;DHT22;59593;51.716;7.016;2023-06-05T08:36:31;18.30;99.90
71754;DHT22;59593;51.716;7.016;2023-06-05T08:39:01;18.50;99.90
71754;DHT22;59593;51.716;7.016;2023-06-05T08:41:30;19.00;99.90
71754;DHT22;59593;51.716;7.016;2023-06-05T08:43:57;19.20;99.90
71754;DHT22;59593;51.716;7.016;2023-06-05T08:46:28;18.70;99.90
71754;DHT22;59593;51.716;7.016;2023-06-05T08:48:53;18.50;99.90
71754;DHT22;59593;51.716;7.016;2023-06-05T08:51:21;18.50;99.90
71754;DHT22;59593;51.716;7.016;2023-06-05T08:54:05;18.70;99.90
71754;DHT22;59593;51.716;7.016;2023-06-05T08:56:39;19.00;99.90
71754;DHT22;59593;51.716;7.016;2023-06-05T08:59:08;19.00;99.90
71754;DHT22;59593;51.716;7.016;2023-06-05T09:01:35;19.10;99.90
71754;DHT22;59593;51.716;7.016;2023-06-05T09:04:02;18.80;99.90
71754;DHT22;59593;51.716;7.016;2023-06-05T09:06:28;18.50;99.90
71754;DHT22;59593;51.716;7.016;2023-06-05T09:08:54;18.90;99.90
71754;DHT22;59593;51.716;7.016;2023-06-05T09:13:50;19.60;99.90
71754;DHT22;59593;51.716;7.016;2023-06-05T09:16:19;19.20;99.90
71754;DHT22;59593;51.716;7.016;2023-06-05T09:18:56;19.30;99.90
71754;DHT22;59593;51.716;7.016;2023-06-05T09:21:24;19.50;99.90
71754;DHT22;59593;51.716;7.016;2023-06-05T09:24:10;19.70;99.90
71754;DHT22;59593;51.716;7.016;2023-06-05T09:26:59;19.70;99.90
71754;DHT22;59593;51.716;7.016;2023-06-05T09:31:52;19.90;99.90
71754;DHT22;59593;51.716;7.016;2023-06-05T09:36:52;19.90;99.90
71754;DHT22;59593;51.716;7.016;2023-06-05T09:39:20;20.10;99.90
71754;DHT22;59593;51.716;7.016;2023-06-05T09:41:48;20.00;99.90
71754;DHT22;59593;51.716;7.016;2023-06-05T09:44:15;20.10;99.90
71754;DHT22;59593;51.716;7.016;2023-06-05T09:52:18;20.80;99.90
71754;DHT22;59593;51.716;7.016;2023-06-05T09:54:45;20.70;99.90
71754;DHT22;59593;51.716;7.016;2023-06-05T09:57:12;21.10;99.90
71754;DHT22;59593;51.716;7.016;2023-06-05T09:59:50;21.10;99.90
71754;DHT22;59593;51.716;7.016;2023-06-05T10:02:17;21.20;99.90
71754;DHT22;59593;51.716;7.016;2023-06-05T10:04:50;21.30;99.90
71754;DHT22;59593;51.716;7.016;2023-06-05T10:07:17;21.20;99.90
71754;DHT22;59593;51.716;7.016;2023-06-05T10:09:44;21.50;99.90
71754;DHT22;59593;51.716;7.016;2023-06-05T10:12:14;21.60;99.90
71754;DHT22;59593;51.716;7.016;2023-06-05T10:14:42;21.60;99.90
71754;DHT22;59593;51.716;7.016;2023-06-05T10:17:08;21.60;99.90
71754;DHT22;59593;51.716;7.016;2023-06-05T10:19:36;21.60;99.90
71754;DHT22;59593;51.716;7.016;2023-06-05T10:22:02;21.70;99.90
71754;DHT22;59593;51.716;7.016;2023-06-05T10:24:34;21.20;99.90
71754;DHT22;59593;51.716;7.016;2023-06-05T10:33:02;21.40;99.90
71754;DHT22;59593;51.716;7.016;2023-06-05T10:35:58;21.30;99.90
71754;DHT22;59593;51.716;7.016;2023-06-05T10:38:27;22.10;99.90
71754;DHT22;59593;51.716;7.016;2023-06-05T10:41:01;22.50;99.90
71754;DHT22;59593;51.716;7.016;2023-06-05T10:43:36;22.50;99.90
71754;DHT22;59593;51.716;7.016;2023-06-05T10:46:32;22.40;99.90
71754;DHT22;59593;51.716;7.016;2023-06-05T10:49:15;22.90;99.90
71754;DHT22;59593;51.716;7.016;2023-06-05T10:51:47;22.90;99.90
71754;DHT22;59593;51.716;7.016;2023-06-05T10:57:01;23.70;99.90
71754;DHT22;59593;51.716;7.016;2023-06-05T10:59:36;23.40;99.90
71754;DHT22;59593;51.716;7.016;2023-06-05T11:07:28;22.80;99.90
71754;DHT22;59593;51.716;7.016;2023-06-05T11:15:54;23.20;99.90
71754;DHT22;59593;51.716;7.016;2023-06-05T11:17:54;23.80;99.90
71754;DHT22;59593;51.716;7.016;2023-06-05T11:27:44;24.10;99.90
71754;DHT22;59593;51.716;7.016;2023-06-05T11:30:21;24.30;99.90
71754;DHT22;59593;51.716;7.016;2023-06-05T11:32:47;24.80;99.90
71754;DHT22;59593;51.716;7.016;2023-06-05T11:35:13;23.60;99.90
71754;DHT22;59593;51.716;7.016;2023-06-05T11:37:39;24.10;99.90
71754;DHT22;59593;51.716;7.016;2023-06-05T11:40:06;24.90;99.90
71754;DHT22;59593;51.716;7.016;2023-06-05T11:42:39;25.10;99.90
71754;DHT22;59593;51.716;7.016;2023-06-05T11:45:14;25.70;98.90
71754;DHT22;59593;51.716;7.016;2023-06-05T11:47:40;25.90;95.70
71754;DHT22;59593;51.716;7.016;2023-06-05T11:50:13;25.90;93.40
71754;DHT22;59593;51.716;7.016;2023-06-05T11:52:44;26.00;95.70
71754;DHT22;59593;51.716;7.016;2023-06-05T11:55:16;26.10;92.50
71754;DHT22;59593;51.716;7.016;2023-06-05T11:57:45;24.70;93.10
71754;DHT22;59593;51.716;7.016;2023-06-05T12:00:15;25.10;85.60
71754;DHT22;59593;51.716;7.016;2023-06-05T12:02:48;25.40;88.00
71754;DHT22;59593;51.716;7.016;2023-06-05T12:05:14;25.40;88.00
71754;DHT22;59593;51.716;7.016;2023-06-05T12:07:40;25.30;84.00
71754;DHT22;59593;51.716;7.016;2023-06-05T12:10:10;25.30;78.00
71754;DHT22;59593;51.716;7.016;2023-06-05T12:12:53;25.40;80.80
71754;DHT22;59593;51.716;7.016;2023-06-05T12:15:19;25.50;81.40
71754;DHT22;59593;51.716;7.016;2023-06-05T12:17:54;25.60;76.30
71754;DHT22;59593;51.716;7.016;2023-06-05T12:20:21;26.00;75.60
71754;DHT22;59593;51.716;7.016;2023-06-05T12:22:48;25.80;75.00
71754;DHT22;59593;51.716;7.016;2023-06-05T12:25:20;25.80;75.80
71754;DHT22;59593;51.716;7.016;2023-06-05T12:27:50;26.00;73.70
71754;DHT22;59593;51.716;7.016;2023-06-05T12:30:16;26.10;75.70
71754;DHT22;59593;51.716;7.016;2023-06-05T12:32:43;26.00;74.20
71754;DHT22;59593;51.716;7.016;2023-06-05T12:35:19;25.90;73.80
71754;DHT22;59593;51.716;7.016;2023-06-05T12:37:45;26.30;71.80
71754;DHT22;59593;51.716;7.016;2023-06-05T12:40:13;25.90;75.10
71754;DHT22;59593;51.716;7.016;2023-06-05T12:42:40;26.50;75.70
71754;DHT22;59593;51.716;7.016;2023-06-05T12:45:06;27.10;73.90
71754;DHT22;59593;51.716;7.016;2023-06-05T12:47:34;27.00;70.40
71754;DHT22;59593;51.716;7.016;2023-06-05T12:50:01;27.00;67.80
71754;DHT22;59593;51.716;7.016;2023-06-05T12:52:31;27.20;68.10
71754;DHT22;59593;51.716;7.016;2023-06-05T12:55:00;26.70;67.50
71754;DHT22;59593;51.716;7.016;2023-06-05T12:57:26;26.80;68.50
71754;DHT22;59593;51.716;7.016;2023-06-05T12:59:53;26.60;70.20
71754;DHT22;59593;51.716;7.016;2023-06-05T13:02:20;27.50;67.00
71754;DHT22;59593;51.716;7.016;2023-06-05T13:04:46;27.10;66.60
71754;DHT22;59593;51.716;7.016;2023-06-05T13:07:12;26.20;69.30
71754;DHT22;59593;51.716;7.016;2023-06-05T13:09:38;26.80;70.60
71754;DHT22;59593;51.716;7.016;2023-06-05T13:12:04;27.00;67.10
71754;DHT22;59593;51.716;7.016;2023-06-05T13:14:30;26.50;66.40
71754;DHT22;59593;51.716;7.016;2023-06-05T13:16:57;26.50;69.30
71754;DHT22;59593;51.716;7.016;2023-06-05T13:19:22;26.20;66.30
71754;DHT22;59593;51.716;7.016;2023-06-05T13:21:49;26.20;69.90
71754;DHT22;59593;51.716;7.016;2023-06-05T13:24:15;26.90;67.30
71754;DHT22;59593;51.716;7.016;2023-06-05T13:26:41;26.90;67.40
71754;DHT22;59593;51.716;7.016;2023-06-05T13:29:08;26.50;65.10
71754;DHT22;59593;51.716;7.016;2023-06-05T13:31:34;26.30;66.40
71754;DHT22;59593;51.716;7.016;2023-06-05T13:34:00;26.20;64.70
71754;DHT22;59593;51.716;7.016;2023-06-05T13:36:25;26.80;64.90
71754;DHT22;59593;51.716;7.016;2023-06-05T13:38:51;27.50;63.30
71754;DHT22;59593;51.716;7.016;2023-06-05T13:41:17;27.00;63.20
71754;DHT22;59593;51.716;7.016;2023-06-05T13:43:43;27.10;62.90
71754;DHT22;59593;51.716;7.016;2023-06-05T13:46:08;27.80;64.00
71754;DHT22;59593;51.716;7.016;2023-06-05T13:48:34;27.30;62.60
71754;DHT22;59593;51.716;7.016;2023-06-05T13:51:00;27.50;62.40
71754;DHT22;59593;51.716;7.016;2023-06-05T13:53:26;26.90;60.10
71754;DHT22;59593;51.716;7.016;2023-06-05T13:55:55;26.40;62.70
71754;DHT22;59593;51.716;7.016;2023-06-05T13:58:21;27.40;64.40
71754;DHT22;59593;51.716;7.016;2023-06-05T14:00:46;27.80;62.80
71754;DHT22;59593;51.716;7.016;2023-06-05T14:03:13;27.90;62.30
71754;DHT22;59593;51.716;7.016;2023-06-05T14:05:39;27.60;62.20
71754;DHT22;59593;51.716;7.016;2023-06-05T14:08:05;26.00;62.30
71754;DHT22;59593;51.716;7.016;2023-06-05T14:10:32;25.40;62.80
71754;DHT22;59593;51.716;7.016;2023-06-05T14:13:02;25.90;64.20
71754;DHT22;59593;51.716;7.016;2023-06-05T14:15:29;26.90;65.60
71754;DHT22;59593;51.716;7.016;2023-06-05T14:17:55;27.70;63.20
71754;DHT22;59593;51.716;7.016;2023-06-05T14:20:21;26.80;62.10
71754;DHT22;59593;51.716;7.016;2023-06-05T14:22:47;26.20;65.70
71754;DHT22;59593;51.716;7.016;2023-06-05T14:25:13;25.90;65.90
71754;DHT22;59593;51.716;7.016;2023-06-05T14:27:38;25.50;64.60
71754;DHT22;59593;51.716;7.016;2023-06-05T14:30:05;26.30;66.00
71754;DHT22;59593;51.716;7.016;2023-06-05T14:32:32;27.00;65.10
71754;DHT22;59593;51.716;7.016;2023-06-05T14:35:19;27.10;62.20
71754;DHT22;59593;51.716;7.016;2023-06-05T14:37:46;27.20;65.10
71754;DHT22;59593;51.716;7.016;2023-06-05T14:40:12;26.70;64.50
71754;DHT22;59593;51.716;7.016;2023-06-05T14:42:38;26.40;65.10
71754;DHT22;59593;51.716;7.016;2023-06-05T14:45:04;26.30;66.50
71754;DHT22;59593;51.716;7.016;2023-06-05T14:47:30;26.00;65.60
71754;DHT22;59593;51.716;7.016;2023-06-05T14:49:56;26.60;66.00
71754;DHT22;59593;51.716;7.016;2023-06-05T14:52:22;26.90;63.20
71754;DHT22;59593;51.716;7.016;2023-06-05T14:54:47;27.30;64.50
71754;DHT22;59593;51.716;7.016;2023-06-05T14:57:13;27.10;63.70
71754;DHT22;59593;51.716;7.016;2023-06-05T14:59:40;27.60;64.30
71754;DHT22;59593;51.716;7.016;2023-06-05T15:02:06;27.70;62.90
71754;DHT22;59593;51.716;7.016;2023-06-05T15:04:32;27.20;63.80
71754;DHT22;59593;51.716;7.016;2023-06-05T15:06:59;26.80;63.80
71754;DHT22;59593;51.716;7.016;2023-06-05T15:09:25;27.20;65.20
71754;DHT22;59593;51.716;7.016;2023-06-05T15:11:51;27.30;63.60
71754;DHT22;59593;51.716;7.016;2023-06-05T15:14:18;27.90;67.00
71754;DHT22;59593;51.716;7.016;2023-06-05T15:16:44;27.60;63.90
71754;DHT22;59593;51.716;7.016;2023-06-05T15:19:10;27.80;64.10
71754;DHT22;59593;51.716;7.016;2023-06-05T15:21:35;27.00;65.00
71754;DHT22;59593;51.716;7.016;2023-06-05T15:24:01;27.30;65.40
71754;DHT22;59593;51.716;7.016;2023-06-05T15:26:27;26.70;63.20
71754;DHT22;59593;51.716;7.016;2023-06-05T15:28:53;27.20;63.30
71754;DHT22;59593;51.716;7.016;2023-06-05T15:31:18;27.40;63.70
71754;DHT22;59593;51.716;7.016;2023-06-05T15:33:44;27.50;64.50
71754;DHT22;59593;51.716;7.016;2023-06-05T15:36:09;26.60;62.50
71754;DHT22;59593;51.716;7.016;2023-06-05T15:38:35;26.60;62.60
71754;DHT22;59593;51.716;7.016;2023-06-05T15:41:01;25.90;65.00
71754;DHT22;59593;51.716;7.016;2023-06-05T15:43:26;26.30;65.00
71754;DHT22;59593;51.716;7.016;2023-06-05T15:45:52;26.60;67.00
71754;DHT22;59593;51.716;7.016;2023-06-05T15:48:19;27.20;65.80
71754;DHT22;59593;51.716;7.016;2023-06-05T15:50:46;27.30;64.20
71754;DHT22;59593;51.716;7.016;2023-06-05T15:53:11;27.60;64.40
71754;DHT22;59593;51.716;7.016;2023-06-05T15:55:37;27.30;63.90
71754;DHT22;59593;51.716;7.016;2023-06-05T15:58:05;27.40;65.30
71754;DHT22;59593;51.716;7.016;2023-06-05T16:00:31;27.30;63.00
71754;DHT22;59593;51.716;7.016;2023-06-05T16:02:56;27.20;63.50
71754;DHT22;59593;51.716;7.016;2023-06-05T16:05:22;26.60;62.70
71754;DHT22;59593;51.716;7.016;2023-06-05T16:07:48;27.10;63.40
71754;DHT22;59593;51.716;7.016;2023-06-05T16:10:14;26.10;62.80
71754;DHT22;59593;51.716;7.016;2023-06-05T16:12:40;26.40;63.70
71754;DHT22;59593;51.716;7.016;2023-06-05T16:15:06;26.30;63.60